sensor_id;sensor_type;location;lat;lon;timestamp;P1;durP1;ratioP1;P2;durP2;ratioP2
49578;SDS011;35483;50.828;3.228;2023-05-28T00:02:14;18.55;;;10.07;;
49578;SDS011;35483;50.828;3.228;2023-05-28T00:04:40;19.65;;;9.75;;
49578;SDS011;35483;50.828;3.228;2023-05-28T00:07:06;17.27;;;10.25;;
49578;SDS011;35483;50.828;3.228;2023-05-28T00:09:36;17.60;;;10.25;;
49578;SDS011;35483;50.828;3.228;2023-05-28T00:12:06;16.25;;;9.90;;
49578;SDS011;35483;50.828;3.228;2023-05-28T00:14:32;16.92;;;10.55;;
49578;SDS011;35483;50.828;3.228;2023-05-28T00:16:58;20.77;;;10.25;;
49578;SDS011;35483;50.828;3.228;2023-05-28T00:19:24;20.33;;;10.00;;
49578;SDS011;35483;50.828;3.228;2023-05-28T00:21:50;17.02;;;10.13;;
49578;SDS011;35483;50.828;3.228;2023-05-28T00:24:16;18.42;;;10.45;;
49578;SDS011;35483;50.828;3.228;2023-05-28T00:26:42;16.48;;;10.20;;
49578;SDS011;35483;50.828;3.228;2023-05-28T00:29:08;17.75;;;9.70;;
49578;SDS011;35483;50.828;3.228;2023-05-28T00:31:34;21.15;;;9.82;;
49578;SDS011;35483;50.828;3.228;2023-05-28T00:34:00;19.15;;;11.00;;
49578;SDS011;35483;50.828;3.228;2023-05-28T00:36:26;19.40;;;10.35;;
49578;SDS011;35483;50.828;3.228;2023-05-28T00:38:52;22.15;;;10.52;;
49578;SDS011;35483;50.828;3.228;2023-05-28T00:41:21;17.85;;;10.98;;
49578;SDS011;35483;50.828;3.228;2023-05-28T00:43:51;20.50;;;10.73;;
49578;SDS011;35483;50.828;3.228;2023-05-28T00:46:17;20.92;;;11.23;;
49578;SDS011;35483;50.828;3.228;2023-05-28T00:48:44;23.00;;;11.32;;
49578;SDS011;35483;50.828;3.228;2023-05-28T00:51:11;21.30;;;11.60;;
49578;SDS011;35483;50.828;3.228;2023-05-28T00:53:38;22.85;;;12.30;;
49578;SDS011;35483;50.828;3.228;2023-05-28T00:56:05;20.40;;;11.48;;
49578;SDS011;35483;50.828;3.228;2023-05-28T00:58:31;22.83;;;11.48;;
49578;SDS011;35483;50.828;3.228;2023-05-28T01:01:00;24.48;;;12.55;;
49578;SDS011;35483;50.828;3.228;2023-05-28T01:03:26;25.08;;;12.48;;
49578;SDS011;35483;50.828;3.228;2023-05-28T01:05:52;22.10;;;12.38;;
49578;SDS011;35483;50.828;3.228;2023-05-28T01:08:17;24.92;;;12.60;;
49578;SDS011;35483;50.828;3.228;2023-05-28T01:10:43;25.98;;;13.30;;
49578;SDS011;35483;50.828;3.228;2023-05-28T01:13:10;25.10;;;13.23;;
49578;SDS011;35483;50.828;3.228;2023-05-28T01:15:37;23.20;;;11.85;;
49578;SDS011;35483;50.828;3.228;2023-05-28T01:18:03;21.17;;;12.57;;
49578;SDS011;35483;50.828;3.228;2023-05-28T01:20:30;21.98;;;12.15;;
49578;SDS011;35483;50.828;3.228;2023-05-28T01:23:01;19.83;;;12.50;;
49578;SDS011;35483;50.828;3.228;2023-05-28T01:25:31;26.27;;;13.10;;
49578;SDS011;35483;50.828;3.228;2023-05-28T01:27:59;23.73;;;13.52;;
49578;SDS011;35483;50.828;3.228;2023-05-28T01:30:28;23.38;;;12.27;;
49578;SDS011;35483;50.828;3.228;2023-05-28T01:32:54;27.88;;;14.55;;
49578;SDS011;35483;50.828;3.228;2023-05-28T01:35:19;23.13;;;12.93;;
49578;SDS011;35483;50.828;3.228;2023-05-28T01:37:47;25.77;;;13.85;;
49578;SDS011;35483;50.828;3.228;2023-05-28T01:40:16;25.13;;;13.85;;
49578;SDS011;35483;50.828;3.228;2023-05-28T01:42:43;22.98;;;13.70;;
49578;SDS011;35483;50.828;3.228;2023-05-28T01:45:10;24.25;;;14.75;;
49578;SDS011;35483;50.828;3.228;2023-05-28T01:47:37;22.38;;;14.65;;
49578;SDS011;35483;50.828;3.228;2023-05-28T01:50:04;25.33;;;14.40;;
49578;SDS011;35483;50.828;3.228;2023-05-28T01:52:30;31.02;;;14.88;;
49578;SDS011;35483;50.828;3.228;2023-05-28T01:54:56;27.88;;;15.13;;
49578;SDS011;35483;50.828;3.228;2023-05-28T01:57:22;29.58;;;15.85;;
49578;SDS011;35483;50.828;3.228;2023-05-28T01:59:47;28.00;;;15.15;;
49578;SDS011;35483;50.828;3.228;2023-05-28T02:02:13;27.52;;;14.38;;
49578;SDS011;35483;50.828;3.228;2023-05-28T02:04:39;28.20;;;14.68;;
49578;SDS011;35483;50.828;3.228;2023-05-28T02:07:05;26.58;;;14.60;;
49578;SDS011;35483;50.828;3.228;2023-05-28T02:09:31;24.83;;;14.88;;
49578;SDS011;35483;50.828;3.228;2023-05-28T02:11:57;33.13;;;15.35;;
49578;SDS011;35483;50.828;3.228;2023-05-28T02:14:27;26.33;;;14.13;;
49578;SDS011;35483;50.828;3.228;2023-05-28T02:16:53;30.77;;;15.40;;
49578;SDS011;35483;50.828;3.228;2023-05-28T02:19:19;24.38;;;14.60;;
49578;SDS011;35483;50.828;3.228;2023-05-28T02:21:45;29.00;;;14.50;;
49578;SDS011;35483;50.828;3.228;2023-05-28T02:24:11;24.35;;;15.18;;
49578;SDS011;35483;50.828;3.228;2023-05-28T02:26:37;24.55;;;13.90;;
49578;SDS011;35483;50.828;3.228;2023-05-28T02:29:02;27.92;;;14.93;;
49578;SDS011;35483;50.828;3.228;2023-05-28T02:31:28;25.85;;;14.25;;
49578;SDS011;35483;50.828;3.228;2023-05-28T02:33:55;25.80;;;14.52;;
49578;SDS011;35483;50.828;3.228;2023-05-28T02:36:21;26.80;;;14.55;;
49578;SDS011;35483;50.828;3.228;2023-05-28T02:38:48;24.02;;;14.70;;
49578;SDS011;35483;50.828;3.228;2023-05-28T02:41:13;28.77;;;15.70;;
49578;SDS011;35483;50.828;3.228;2023-05-28T02:43:39;30.65;;;16.85;;
49578;SDS011;35483;50.828;3.228;2023-05-28T02:46:05;27.83;;;14.77;;
49578;SDS011;35483;50.828;3.228;2023-05-28T02:48:31;26.65;;;14.98;;
49578;SDS011;35483;50.828;3.228;2023-05-28T02:50:57;29.65;;;16.33;;
49578;SDS011;35483;50.828;3.228;2023-05-28T02:53:22;27.83;;;14.55;;
49578;SDS011;35483;50.828;3.228;2023-05-28T02:55:48;26.52;;;15.68;;
49578;SDS011;35483;50.828;3.228;2023-05-28T02:58:14;32.10;;;15.73;;
49578;SDS011;35483;50.828;3.228;2023-05-28T03:00:41;24.75;;;14.40;;
49578;SDS011;35483;50.828;3.228;2023-05-28T03:03:07;26.15;;;14.70;;
49578;SDS011;35483;50.828;3.228;2023-05-28T03:05:34;30.02;;;15.95;;
49578;SDS011;35483;50.828;3.228;2023-05-28T03:08:00;27.83;;;15.73;;
49578;SDS011;35483;50.828;3.228;2023-05-28T03:10:26;26.80;;;13.82;;
49578;SDS011;35483;50.828;3.228;2023-05-28T03:12:52;30.02;;;15.02;;
49578;SDS011;35483;50.828;3.228;2023-05-28T03:15:17;27.77;;;14.90;;
49578;SDS011;35483;50.828;3.228;2023-05-28T03:17:43;27.45;;;14.65;;
49578;SDS011;35483;50.828;3.228;2023-05-28T03:20:09;26.30;;;15.20;;
49578;SDS011;35483;50.828;3.228;2023-05-28T03:22:37;24.55;;;14.30;;
49578;SDS011;35483;50.828;3.228;2023-05-28T03:25:03;29.13;;;15.15;;
49578;SDS011;35483;50.828;3.228;2023-05-28T03:27:31;25.77;;;15.15;;
49578;SDS011;35483;50.828;3.228;2023-05-28T03:29:57;25.92;;;14.90;;
49578;SDS011;35483;50.828;3.228;2023-05-28T03:32:23;28.05;;;15.27;;
49578;SDS011;35483;50.828;3.228;2023-05-28T03:34:49;22.83;;;14.30;;
49578;SDS011;35483;50.828;3.228;2023-05-28T03:37:15;28.45;;;15.43;;
49578;SDS011;35483;50.828;3.228;2023-05-28T03:39:41;24.65;;;14.90;;
49578;SDS011;35483;50.828;3.228;2023-05-28T03:42:08;22.85;;;14.73;;
49578;SDS011;35483;50.828;3.228;2023-05-28T03:44:34;33.28;;;16.95;;
49578;SDS011;35483;50.828;3.228;2023-05-28T03:47:00;26.48;;;15.40;;
49578;SDS011;35483;50.828;3.228;2023-05-28T03:49:26;30.23;;;16.20;;
49578;SDS011;35483;50.828;3.228;2023-05-28T03:51:52;27.48;;;17.27;;
49578;SDS011;35483;50.828;3.228;2023-05-28T03:54:17;29.98;;;16.58;;
49578;SDS011;35483;50.828;3.228;2023-05-28T03:56:43;29.75;;;17.50;;
49578;SDS011;35483;50.828;3.228;2023-05-28T03:59:09;29.45;;;16.52;;
49578;SDS011;35483;50.828;3.228;2023-05-28T04:01:35;32.95;;;16.88;;
49578;SDS011;35483;50.828;3.228;2023-05-28T04:04:02;31.02;;;14.80;;
49578;SDS011;35483;50.828;3.228;2023-05-28T04:06:28;28.20;;;14.05;;
49578;SDS011;35483;50.828;3.228;2023-05-28T04:08:55;26.25;;;15.73;;
49578;SDS011;35483;50.828;3.228;2023-05-28T04:11:21;33.80;;;15.30;;
49578;SDS011;35483;50.828;3.228;2023-05-28T04:13:50;26.33;;;15.52;;
49578;SDS011;35483;50.828;3.228;2023-05-28T04:16:16;26.77;;;15.50;;
49578;SDS011;35483;50.828;3.228;2023-05-28T04:18:42;27.92;;;14.88;;
49578;SDS011;35483;50.828;3.228;2023-05-28T04:21:07;31.58;;;15.02;;
49578;SDS011;35483;50.828;3.228;2023-05-28T04:23:33;25.90;;;15.95;;
49578;SDS011;35483;50.828;3.228;2023-05-28T04:25:59;27.13;;;15.55;;
49578;SDS011;35483;50.828;3.228;2023-05-28T04:28:25;31.77;;;17.70;;
49578;SDS011;35483;50.828;3.228;2023-05-28T04:30:52;29.85;;;16.08;;
49578;SDS011;35483;50.828;3.228;2023-05-28T04:33:19;27.33;;;15.75;;
49578;SDS011;35483;50.828;3.228;2023-05-28T04:35:47;31.80;;;16.58;;
49578;SDS011;35483;50.828;3.228;2023-05-28T04:38:13;31.25;;;16.90;;
49578;SDS011;35483;50.828;3.228;2023-05-28T04:40:38;27.65;;;16.23;;
49578;SDS011;35483;50.828;3.228;2023-05-28T04:43:05;30.77;;;15.57;;
49578;SDS011;35483;50.828;3.228;2023-05-28T04:45:32;32.30;;;15.77;;
49578;SDS011;35483;50.828;3.228;2023-05-28T04:47:57;30.30;;;15.45;;
49578;SDS011;35483;50.828;3.228;2023-05-28T04:50:24;28.52;;;16.00;;
49578;SDS011;35483;50.828;3.228;2023-05-28T04:52:50;30.40;;;15.30;;
49578;SDS011;35483;50.828;3.228;2023-05-28T04:55:15;32.13;;;16.75;;
49578;SDS011;35483;50.828;3.228;2023-05-28T04:57:41;25.15;;;15.02;;
49578;SDS011;35483;50.828;3.228;2023-05-28T05:00:07;29.55;;;17.95;;
49578;SDS011;35483;50.828;3.228;2023-05-28T05:02:39;31.08;;;16.33;;
49578;SDS011;35483;50.828;3.228;2023-05-28T05:05:08;31.63;;;16.65;;
49578;SDS011;35483;50.828;3.228;2023-05-28T05:07:35;30.58;;;16.98;;
49578;SDS011;35483;50.828;3.228;2023-05-28T05:10:05;31.73;;;17.13;;
49578;SDS011;35483;50.828;3.228;2023-05-28T05:12:33;34.67;;;16.98;;
49578;SDS011;35483;50.828;3.228;2023-05-28T05:14:59;37.85;;;17.40;;
49578;SDS011;35483;50.828;3.228;2023-05-28T05:17:25;33.50;;;19.05;;
49578;SDS011;35483;50.828;3.228;2023-05-28T05:19:51;28.13;;;17.45;;
49578;SDS011;35483;50.828;3.228;2023-05-28T05:22:17;29.15;;;17.15;;
49578;SDS011;35483;50.828;3.228;2023-05-28T05:24:44;31.75;;;17.05;;
49578;SDS011;35483;50.828;3.228;2023-05-28T05:27:11;30.35;;;16.52;;
49578;SDS011;35483;50.828;3.228;2023-05-28T05:29:37;32.47;;;16.60;;
49578;SDS011;35483;50.828;3.228;2023-05-28T05:32:03;28.63;;;17.42;;
49578;SDS011;35483;50.828;3.228;2023-05-28T05:34:28;34.90;;;15.80;;
49578;SDS011;35483;50.828;3.228;2023-05-28T05:36:54;31.42;;;16.40;;
49578;SDS011;35483;50.828;3.228;2023-05-28T05:39:21;30.55;;;16.25;;
49578;SDS011;35483;50.828;3.228;2023-05-28T05:41:47;31.13;;;17.17;;
49578;SDS011;35483;50.828;3.228;2023-05-28T05:44:13;25.98;;;15.95;;
49578;SDS011;35483;50.828;3.228;2023-05-28T05:46:38;29.83;;;16.23;;
49578;SDS011;35483;50.828;3.228;2023-05-28T05:49:05;29.25;;;16.13;;
49578;SDS011;35483;50.828;3.228;2023-05-28T05:51:30;28.38;;;15.73;;
49578;SDS011;35483;50.828;3.228;2023-05-28T05:53:57;27.00;;;15.98;;
49578;SDS011;35483;50.828;3.228;2023-05-28T05:56:23;29.90;;;17.58;;
49578;SDS011;35483;50.828;3.228;2023-05-28T05:58:50;31.27;;;17.08;;
49578;SDS011;35483;50.828;3.228;2023-05-28T06:01:17;25.88;;;14.95;;
49578;SDS011;35483;50.828;3.228;2023-05-28T06:03:43;27.63;;;17.50;;
49578;SDS011;35483;50.828;3.228;2023-05-28T06:06:09;32.35;;;16.70;;
49578;SDS011;35483;50.828;3.228;2023-05-28T06:08:35;28.90;;;16.30;;
49578;SDS011;35483;50.828;3.228;2023-05-28T06:11:01;30.00;;;16.08;;
49578;SDS011;35483;50.828;3.228;2023-05-28T06:13:27;32.20;;;16.35;;
49578;SDS011;35483;50.828;3.228;2023-05-28T06:15:53;29.25;;;16.40;;
49578;SDS011;35483;50.828;3.228;2023-05-28T06:18:19;30.95;;;16.13;;
49578;SDS011;35483;50.828;3.228;2023-05-28T06:20:46;25.80;;;16.08;;
49578;SDS011;35483;50.828;3.228;2023-05-28T06:23:14;28.92;;;16.80;;
49578;SDS011;35483;50.828;3.228;2023-05-28T06:25:40;29.13;;;16.17;;
49578;SDS011;35483;50.828;3.228;2023-05-28T06:28:06;33.58;;;17.25;;
49578;SDS011;35483;50.828;3.228;2023-05-28T06:30:32;35.03;;;17.92;;
49578;SDS011;35483;50.828;3.228;2023-05-28T06:32:58;30.30;;;17.10;;
49578;SDS011;35483;50.828;3.228;2023-05-28T06:35:24;32.47;;;16.42;;
49578;SDS011;35483;50.828;3.228;2023-05-28T06:37:49;27.35;;;15.88;;
49578;SDS011;35483;50.828;3.228;2023-05-28T06:40:15;26.20;;;14.82;;
49578;SDS011;35483;50.828;3.228;2023-05-28T06:42:41;30.25;;;15.35;;
49578;SDS011;35483;50.828;3.228;2023-05-28T06:45:07;25.50;;;14.40;;
49578;SDS011;35483;50.828;3.228;2023-05-28T06:47:33;28.92;;;14.63;;
49578;SDS011;35483;50.828;3.228;2023-05-28T06:49:59;25.42;;;14.00;;
49578;SDS011;35483;50.828;3.228;2023-05-28T06:52:25;22.17;;;14.73;;
49578;SDS011;35483;50.828;3.228;2023-05-28T06:54:52;28.63;;;15.02;;
49578;SDS011;35483;50.828;3.228;2023-05-28T06:57:18;27.48;;;15.05;;
49578;SDS011;35483;50.828;3.228;2023-05-28T06:59:43;24.08;;;12.85;;
49578;SDS011;35483;50.828;3.228;2023-05-28T07:02:09;24.02;;;13.85;;
49578;SDS011;35483;50.828;3.228;2023-05-28T07:04:36;28.00;;;14.27;;
49578;SDS011;35483;50.828;3.228;2023-05-28T07:07:03;23.45;;;12.65;;
49578;SDS011;35483;50.828;3.228;2023-05-28T07:09:29;21.83;;;12.93;;
49578;SDS011;35483;50.828;3.228;2023-05-28T07:11:55;22.88;;;12.93;;
49578;SDS011;35483;50.828;3.228;2023-05-28T07:14:21;25.35;;;14.32;;
49578;SDS011;35483;50.828;3.228;2023-05-28T07:16:47;22.20;;;12.63;;
49578;SDS011;35483;50.828;3.228;2023-05-28T07:19:13;19.30;;;11.43;;
49578;SDS011;35483;50.828;3.228;2023-05-28T07:21:39;23.30;;;11.77;;
49578;SDS011;35483;50.828;3.228;2023-05-28T07:24:05;20.98;;;12.73;;
49578;SDS011;35483;50.828;3.228;2023-05-28T07:26:32;17.33;;;10.70;;
49578;SDS011;35483;50.828;3.228;2023-05-28T07:28:58;18.10;;;11.48;;
49578;SDS011;35483;50.828;3.228;2023-05-28T07:31:26;23.67;;;12.10;;
49578;SDS011;35483;50.828;3.228;2023-05-28T07:33:53;18.80;;;11.27;;
49578;SDS011;35483;50.828;3.228;2023-05-28T07:36:19;18.90;;;10.73;;
49578;SDS011;35483;50.828;3.228;2023-05-28T07:38:45;19.15;;;10.70;;
49578;SDS011;35483;50.828;3.228;2023-05-28T07:41:10;21.17;;;11.90;;
49578;SDS011;35483;50.828;3.228;2023-05-28T07:43:36;19.08;;;11.32;;
49578;SDS011;35483;50.828;3.228;2023-05-28T07:46:02;20.52;;;10.75;;
49578;SDS011;35483;50.828;3.228;2023-05-28T07:48:28;20.17;;;11.18;;
49578;SDS011;35483;50.828;3.228;2023-05-28T07:50:54;19.15;;;10.90;;
49578;SDS011;35483;50.828;3.228;2023-05-28T07:53:20;16.08;;;11.35;;
49578;SDS011;35483;50.828;3.228;2023-05-28T07:55:46;17.63;;;10.18;;
49578;SDS011;35483;50.828;3.228;2023-05-28T07:58:11;15.18;;;9.65;;
49578;SDS011;35483;50.828;3.228;2023-05-28T08:00:38;18.15;;;9.75;;
49578;SDS011;35483;50.828;3.228;2023-05-28T08:03:04;15.75;;;9.57;;
49578;SDS011;35483;50.828;3.228;2023-05-28T08:05:31;15.43;;;9.73;;
49578;SDS011;35483;50.828;3.228;2023-05-28T08:07:56;20.20;;;10.05;;
49578;SDS011;35483;50.828;3.228;2023-05-28T08:10:22;16.30;;;9.52;;
49578;SDS011;35483;50.828;3.228;2023-05-28T08:12:48;16.75;;;9.63;;
49578;SDS011;35483;50.828;3.228;2023-05-28T08:15:14;23.77;;;10.40;;
49578;SDS011;35483;50.828;3.228;2023-05-28T08:17:40;13.35;;;9.10;;
49578;SDS011;35483;50.828;3.228;2023-05-28T08:20:07;13.80;;;8.68;;
49578;SDS011;35483;50.828;3.228;2023-05-28T08:22:35;15.48;;;8.48;;
49578;SDS011;35483;50.828;3.228;2023-05-28T08:25:01;15.38;;;8.40;;
49578;SDS011;35483;50.828;3.228;2023-05-28T08:27:27;15.75;;;9.05;;
49578;SDS011;35483;50.828;3.228;2023-05-28T08:29:53;16.20;;;8.10;;
49578;SDS011;35483;50.828;3.228;2023-05-28T08:32:19;12.68;;;7.90;;
49578;SDS011;35483;50.828;3.228;2023-05-28T08:34:46;17.10;;;8.20;;
49578;SDS011;35483;50.828;3.228;2023-05-28T08:37:12;14.88;;;7.57;;
49578;SDS011;35483;50.828;3.228;2023-05-28T08:39:38;15.05;;;7.68;;
49578;SDS011;35483;50.828;3.228;2023-05-28T08:42:04;13.27;;;7.97;;
49578;SDS011;35483;50.828;3.228;2023-05-28T08:44:30;11.32;;;7.57;;
49578;SDS011;35483;50.828;3.228;2023-05-28T08:46:56;12.05;;;7.22;;
49578;SDS011;35483;50.828;3.228;2023-05-28T08:49:26;12.35;;;7.10;;
49578;SDS011;35483;50.828;3.228;2023-05-28T08:52:02;13.23;;;6.88;;
49578;SDS011;35483;50.828;3.228;2023-05-28T08:54:30;16.90;;;8.48;;
49578;SDS011;35483;50.828;3.228;2023-05-28T08:56:56;11.57;;;6.30;;
49578;SDS011;35483;50.828;3.228;2023-05-28T08:59:22;10.98;;;6.50;;
49578;SDS011;35483;50.828;3.228;2023-05-28T09:01:49;13.27;;;8.05;;
49578;SDS011;35483;50.828;3.228;2023-05-28T09:04:16;11.20;;;5.95;;
49578;SDS011;35483;50.828;3.228;2023-05-28T09:06:42;10.13;;;5.68;;
49578;SDS011;35483;50.828;3.228;2023-05-28T09:09:08;10.48;;;5.47;;
49578;SDS011;35483;50.828;3.228;2023-05-28T09:11:34;9.25;;;5.50;;
49578;SDS011;35483;50.828;3.228;2023-05-28T09:14:10;10.48;;;5.90;;
49578;SDS011;35483;50.828;3.228;2023-05-28T09:16:41;10.85;;;6.20;;
49578;SDS011;35483;50.828;3.228;2023-05-28T09:19:08;13.43;;;6.60;;
49578;SDS011;35483;50.828;3.228;2023-05-28T09:21:34;11.40;;;7.15;;
49578;SDS011;35483;50.828;3.228;2023-05-28T09:24:01;14.02;;;7.15;;
49578;SDS011;35483;50.828;3.228;2023-05-28T09:26:32;10.82;;;6.90;;
49578;SDS011;35483;50.828;3.228;2023-05-28T09:28:58;13.57;;;7.32;;
49578;SDS011;35483;50.828;3.228;2023-05-28T09:31:31;12.85;;;6.78;;
49578;SDS011;35483;50.828;3.228;2023-05-28T09:33:59;11.68;;;6.38;;
49578;SDS011;35483;50.828;3.228;2023-05-28T09:36:29;10.15;;;6.18;;
49578;SDS011;35483;50.828;3.228;2023-05-28T09:38:55;10.77;;;5.65;;
49578;SDS011;35483;50.828;3.228;2023-05-28T09:41:22;8.32;;;5.30;;
49578;SDS011;35483;50.828;3.228;2023-05-28T09:43:56;8.43;;;5.40;;
49578;SDS011;35483;50.828;3.228;2023-05-28T09:46:32;6.67;;;4.53;;
49578;SDS011;35483;50.828;3.228;2023-05-28T09:48:59;10.45;;;5.32;;
49578;SDS011;35483;50.828;3.228;2023-05-28T09:51:27;10.65;;;6.18;;
49578;SDS011;35483;50.828;3.228;2023-05-28T09:54:00;8.25;;;4.88;;
49578;SDS011;35483;50.828;3.228;2023-05-28T09:56:28;7.75;;;4.90;;
49578;SDS011;35483;50.828;3.228;2023-05-28T09:58:56;10.25;;;5.15;;
49578;SDS011;35483;50.828;3.228;2023-05-28T10:01:24;9.00;;;4.47;;
49578;SDS011;35483;50.828;3.228;2023-05-28T10:04:09;9.48;;;4.95;;
49578;SDS011;35483;50.828;3.228;2023-05-28T10:06:37;7.22;;;4.30;;
49578;SDS011;35483;50.828;3.228;2023-05-28T10:09:05;8.10;;;5.10;;
49578;SDS011;35483;50.828;3.228;2023-05-28T10:11:38;8.93;;;4.50;;
49578;SDS011;35483;50.828;3.228;2023-05-28T10:14:08;10.07;;;5.07;;
49578;SDS011;35483;50.828;3.228;2023-05-28T10:16:36;7.65;;;4.93;;
49578;SDS011;35483;50.828;3.228;2023-05-28T10:19:02;9.02;;;5.13;;
49578;SDS011;35483;50.828;3.228;2023-05-28T10:21:29;7.60;;;5.03;;
49578;SDS011;35483;50.828;3.228;2023-05-28T10:23:55;7.65;;;4.53;;
49578;SDS011;35483;50.828;3.228;2023-05-28T10:26:21;9.68;;;4.75;;
49578;SDS011;35483;50.828;3.228;2023-05-28T10:28:55;8.13;;;4.63;;
49578;SDS011;35483;50.828;3.228;2023-05-28T10:31:22;8.30;;;4.03;;
49578;SDS011;35483;50.828;3.228;2023-05-28T10:33:48;8.07;;;4.63;;
49578;SDS011;35483;50.828;3.228;2023-05-28T10:36:15;8.60;;;4.20;;
49578;SDS011;35483;50.828;3.228;2023-05-28T10:38:45;8.43;;;3.80;;
49578;SDS011;35483;50.828;3.228;2023-05-28T10:41:21;5.95;;;4.35;;
49578;SDS011;35483;50.828;3.228;2023-05-28T10:43:49;10.52;;;4.25;;
49578;SDS011;35483;50.828;3.228;2023-05-28T10:46:20;7.82;;;4.13;;
49578;SDS011;35483;50.828;3.228;2023-05-28T10:59:42;6.90;;;4.22;;
49578;SDS011;35483;50.828;3.228;2023-05-28T11:02:12;6.13;;;3.47;;
49578;SDS011;35483;50.828;3.228;2023-05-28T11:04:41;8.95;;;4.18;;
49578;SDS011;35483;50.828;3.228;2023-05-28T11:07:07;5.07;;;3.00;;
49578;SDS011;35483;50.828;3.228;2023-05-28T11:09:33;6.50;;;4.15;;
49578;SDS011;35483;50.828;3.228;2023-05-28T11:12:00;5.20;;;3.15;;
49578;SDS011;35483;50.828;3.228;2023-05-28T11:14:33;6.55;;;3.38;;
49578;SDS011;35483;50.828;3.228;2023-05-28T11:17:09;7.05;;;3.35;;
49578;SDS011;35483;50.828;3.228;2023-05-28T11:19:42;8.82;;;3.88;;
49578;SDS011;35483;50.828;3.228;2023-05-28T11:22:09;7.88;;;4.15;;
49578;SDS011;35483;50.828;3.228;2023-05-28T11:24:52;5.18;;;3.53;;
49578;SDS011;35483;50.828;3.228;2023-05-28T11:27:22;5.75;;;3.75;;
49578;SDS011;35483;50.828;3.228;2023-05-28T11:29:48;6.80;;;4.05;;
49578;SDS011;35483;50.828;3.228;2023-05-28T11:32:17;9.45;;;4.00;;
49578;SDS011;35483;50.828;3.228;2023-05-28T11:34:44;5.50;;;3.85;;
49578;SDS011;35483;50.828;3.228;2023-05-28T11:37:10;7.15;;;4.18;;
49578;SDS011;35483;50.828;3.228;2023-05-28T11:39:36;6.72;;;3.80;;
49578;SDS011;35483;50.828;3.228;2023-05-28T11:42:04;9.00;;;4.75;;
49578;SDS011;35483;50.828;3.228;2023-05-28T11:44:33;9.07;;;3.65;;
49578;SDS011;35483;50.828;3.228;2023-05-28T11:46:58;8.77;;;4.47;;
49578;SDS011;35483;50.828;3.228;2023-05-28T11:49:24;9.38;;;4.25;;
49578;SDS011;35483;50.828;3.228;2023-05-28T11:51:52;7.03;;;4.38;;
49578;SDS011;35483;50.828;3.228;2023-05-28T11:54:18;5.95;;;3.92;;
49578;SDS011;35483;50.828;3.228;2023-05-28T11:56:50;6.82;;;4.07;;
49578;SDS011;35483;50.828;3.228;2023-05-28T11:59:15;9.38;;;4.68;;
49578;SDS011;35483;50.828;3.228;2023-05-28T12:01:42;6.93;;;4.40;;
49578;SDS011;35483;50.828;3.228;2023-05-28T12:04:08;12.50;;;5.35;;
49578;SDS011;35483;50.828;3.228;2023-05-28T12:06:34;8.23;;;4.68;;
49578;SDS011;35483;50.828;3.228;2023-05-28T12:09:13;6.80;;;3.85;;
49578;SDS011;35483;50.828;3.228;2023-05-28T12:11:40;6.22;;;4.78;;
49578;SDS011;35483;50.828;3.228;2023-05-28T12:14:12;7.60;;;4.68;;
49578;SDS011;35483;50.828;3.228;2023-05-28T12:16:46;7.80;;;4.63;;
49578;SDS011;35483;50.828;3.228;2023-05-28T12:19:17;7.55;;;4.88;;
49578;SDS011;35483;50.828;3.228;2023-05-28T12:21:44;8.65;;;4.43;;
49578;SDS011;35483;50.828;3.228;2023-05-28T12:24:13;6.30;;;4.00;;
49578;SDS011;35483;50.828;3.228;2023-05-28T12:26:43;6.75;;;4.15;;
49578;SDS011;35483;50.828;3.228;2023-05-28T12:29:09;9.38;;;4.93;;
49578;SDS011;35483;50.828;3.228;2023-05-28T12:31:35;7.55;;;4.97;;
49578;SDS011;35483;50.828;3.228;2023-05-28T12:34:01;9.00;;;5.10;;
49578;SDS011;35483;50.828;3.228;2023-05-28T12:36:27;7.00;;;4.53;;
49578;SDS011;35483;50.828;3.228;2023-05-28T12:38:53;10.00;;;4.50;;
49578;SDS011;35483;50.828;3.228;2023-05-28T12:41:19;11.35;;;4.10;;
49578;SDS011;35483;50.828;3.228;2023-05-28T12:43:45;7.82;;;4.38;;
49578;SDS011;35483;50.828;3.228;2023-05-28T12:46:11;6.40;;;4.10;;
49578;SDS011;35483;50.828;3.228;2023-05-28T12:48:36;9.35;;;4.85;;
49578;SDS011;35483;50.828;3.228;2023-05-28T12:51:02;8.27;;;4.05;;
49578;SDS011;35483;50.828;3.228;2023-05-28T12:53:28;7.68;;;4.40;;
49578;SDS011;35483;50.828;3.228;2023-05-28T12:55:54;7.70;;;4.05;;
49578;SDS011;35483;50.828;3.228;2023-05-28T12:58:20;7.90;;;4.65;;
49578;SDS011;35483;50.828;3.228;2023-05-28T13:00:46;9.13;;;4.45;;
49578;SDS011;35483;50.828;3.228;2023-05-28T13:03:13;8.63;;;4.45;;
49578;SDS011;35483;50.828;3.228;2023-05-28T13:05:39;7.60;;;3.55;;
49578;SDS011;35483;50.828;3.228;2023-05-28T13:08:05;7.25;;;3.83;;
49578;SDS011;35483;50.828;3.228;2023-05-28T13:10:31;7.43;;;3.60;;
49578;SDS011;35483;50.828;3.228;2023-05-28T13:12:56;6.07;;;3.60;;
49578;SDS011;35483;50.828;3.228;2023-05-28T13:15:23;7.55;;;4.15;;
49578;SDS011;35483;50.828;3.228;2023-05-28T13:17:49;5.40;;;3.67;;
49578;SDS011;35483;50.828;3.228;2023-05-28T13:20:15;7.40;;;4.15;;
49578;SDS011;35483;50.828;3.228;2023-05-28T13:22:41;6.15;;;4.35;;
49578;SDS011;35483;50.828;3.228;2023-05-28T13:25:08;8.05;;;4.38;;
49578;SDS011;35483;50.828;3.228;2023-05-28T13:27:34;4.40;;;3.28;;
49578;SDS011;35483;50.828;3.228;2023-05-28T13:30:00;5.03;;;3.75;;
49578;SDS011;35483;50.828;3.228;2023-05-28T13:32:27;6.22;;;4.18;;
49578;SDS011;35483;50.828;3.228;2023-05-28T13:34:53;5.00;;;3.65;;
49578;SDS011;35483;50.828;3.228;2023-05-28T13:37:19;6.72;;;3.78;;
49578;SDS011;35483;50.828;3.228;2023-05-28T13:39:45;16.50;;;5.65;;
49578;SDS011;35483;50.828;3.228;2023-05-28T13:42:11;8.90;;;3.88;;
49578;SDS011;35483;50.828;3.228;2023-05-28T13:44:38;7.40;;;3.95;;
49578;SDS011;35483;50.828;3.228;2023-05-28T13:47:04;6.55;;;3.63;;
49578;SDS011;35483;50.828;3.228;2023-05-28T13:49:30;6.45;;;3.58;;
49578;SDS011;35483;50.828;3.228;2023-05-28T13:51:57;7.28;;;4.43;;
49578;SDS011;35483;50.828;3.228;2023-05-28T13:54:23;7.32;;;3.72;;
49578;SDS011;35483;50.828;3.228;2023-05-28T13:56:48;7.88;;;3.72;;
49578;SDS011;35483;50.828;3.228;2023-05-28T13:59:14;6.75;;;4.22;;
49578;SDS011;35483;50.828;3.228;2023-05-28T14:01:40;4.78;;;3.40;;
49578;SDS011;35483;50.828;3.228;2023-05-28T14:04:05;4.93;;;3.20;;
49578;SDS011;35483;50.828;3.228;2023-05-28T14:06:31;5.35;;;2.97;;
49578;SDS011;35483;50.828;3.228;2023-05-28T14:08:57;6.40;;;3.58;;
49578;SDS011;35483;50.828;3.228;2023-05-28T14:11:23;8.95;;;3.63;;
49578;SDS011;35483;50.828;3.228;2023-05-28T14:13:48;4.97;;;3.53;;
49578;SDS011;35483;50.828;3.228;2023-05-28T14:16:14;7.72;;;4.03;;
49578;SDS011;35483;50.828;3.228;2023-05-28T14:18:40;6.50;;;3.53;;
49578;SDS011;35483;50.828;3.228;2023-05-28T14:21:06;4.93;;;3.38;;
49578;SDS011;35483;50.828;3.228;2023-05-28T14:23:32;6.03;;;3.35;;
49578;SDS011;35483;50.828;3.228;2023-05-28T14:25:59;7.40;;;3.38;;
49578;SDS011;35483;50.828;3.228;2023-05-28T14:28:25;5.70;;;3.28;;
49578;SDS011;35483;50.828;3.228;2023-05-28T14:30:51;5.75;;;3.35;;
49578;SDS011;35483;50.828;3.228;2023-05-28T14:33:17;6.72;;;3.65;;
49578;SDS011;35483;50.828;3.228;2023-05-28T14:35:43;6.90;;;3.83;;
49578;SDS011;35483;50.828;3.228;2023-05-28T14:38:09;6.05;;;3.50;;
49578;SDS011;35483;50.828;3.228;2023-05-28T14:40:34;8.60;;;4.40;;